Terminal Aerodrome Forecast
Issued by NWS Sterling, VA

Current Version | Previous Version | Graphics & Text | Print | Product List | Glossary On
Versions: 1 2 3 4 5 6 7 8 9 10 11 12 13 14 15 16 17 18 19 20 21 22 23 24 25 26 27 28 29
000
FTUS41 KLWX 240534
TAFDCA
TAF
KDCA 240534Z 2406/2506 02006KT P6SM -RA SCT020 OVC045
     FM240900 02006KT P6SM BKN015 OVC035
     FM241300 05005KT P6SM BKN015 OVC035
     FM241600 11007KT P6SM BKN020 BKN035
     FM250100 11010KT P6SM BKN008 OVC025
     FM250300 10011G18KT 5SM -RA BKN008 OVC025=

USA.gov is the U.S. government's official web portal to all federal, state and local government web resources and services.